createdAt,value
2022-08-22T00:02:10.596Z,19.71
2022-08-22T00:02:46.133Z,20.88
2022-08-22T00:04:48.840Z,19.64
2022-08-22T00:07:38.824Z,19.60
2022-08-22T00:10:25.285Z,19.53
2022-08-22T00:13:02.342Z,19.48
2022-08-22T00:15:43.567Z,19.45
2022-08-22T00:18:31.867Z,19.21
2022-08-22T00:21:12.018Z,19.34
2022-08-22T00:23:44.751Z,19.41
2022-08-22T00:26:23.966Z,19.38
2022-08-22T00:28:58.186Z,19.31
2022-08-22T00:31:34.657Z,19.31
2022-08-22T00:34:07.945Z,19.27
2022-08-22T00:36:40.655Z,19.28
2022-08-22T00:39:16.031Z,19.27
2022-08-22T00:42:29.505Z,19.26
2022-08-22T00:45:45.730Z,19.22
2022-08-22T00:48:43.260Z,19.23
2022-08-22T00:51:32.586Z,19.19
2022-08-22T00:54:17.617Z,19.20
2022-08-22T00:57:00.474Z,19.18
2022-08-22T00:59:56.402Z,19.17
2022-08-22T01:02:33.289Z,19.17
2022-08-22T01:05:18.836Z,19.16
2022-08-22T01:08:06.387Z,18.90
2022-08-22T01:10:50.774Z,19.11
2022-08-22T01:13:35.725Z,19.07
2022-08-22T01:16:21.467Z,19.09
2022-08-22T01:19:15.021Z,19.11
2022-08-22T01:23:56.385Z,19.07
2022-08-22T01:26:57.474Z,19.12
2022-08-22T01:30:00.152Z,19.05
2022-08-22T01:33:12.091Z,19.03
2022-08-22T01:36:20.054Z,19.01
2022-08-22T01:39:03.327Z,18.97
2022-08-22T01:41:58.909Z,18.95
2022-08-22T01:44:49.272Z,18.91
2022-08-22T01:47:22.124Z,18.85
2022-08-22T01:49:55.414Z,18.74
2022-08-22T01:52:40.121Z,18.72
2022-08-22T01:55:22.444Z,18.62
2022-08-22T01:57:53.979Z,18.56
2022-08-22T02:00:34.842Z,18.51
2022-08-22T02:03:24.184Z,18.45
2022-08-22T02:06:00.561Z,18.42
2022-08-22T02:08:39.408Z,18.37
2022-08-22T02:11:29.732Z,18.33
2022-08-22T02:14:04.328Z,18.25
2022-08-22T02:16:39.795Z,18.21
2022-08-22T02:19:22.304Z,18.15
2022-08-22T02:21:56.462Z,18.13
2022-08-22T02:24:36.937Z,18.08
2022-08-22T02:27:13.945Z,18.02
2022-08-22T02:29:51.563Z,18.00
2022-08-22T02:32:28.056Z,17.94
2022-08-22T02:35:06.839Z,17.96
2022-08-22T02:37:42.006Z,17.92
2022-08-22T02:40:28.100Z,17.82
2022-08-22T02:43:03.821Z,17.78
2022-08-22T02:45:39.140Z,17.87
2022-08-22T02:48:18.157Z,17.81
2022-08-22T02:50:52.464Z,17.72
2022-08-22T02:53:28.173Z,17.66
2022-08-22T02:56:04.225Z,17.63
2022-08-22T02:58:43.844Z,17.51
2022-08-22T03:01:22.515Z,17.49
2022-08-22T03:03:52.507Z,17.47
2022-08-22T03:06:39.214Z,17.31
2022-08-22T03:09:24.956Z,17.27
2022-08-22T03:12:10.369Z,17.18
2022-08-22T03:14:45.773Z,17.25
2022-08-22T03:17:20.161Z,17.20
2022-08-22T03:20:00.343Z,17.21
2022-08-22T03:22:39.012Z,17.17
2022-08-22T03:25:15.627Z,17.30
2022-08-22T03:27:51.871Z,17.06
2022-08-22T03:30:23.317Z,17.04
2022-08-22T03:32:55.573Z,17.00
2022-08-22T03:35:37.892Z,16.94
2022-08-22T03:38:19.741Z,16.96
2022-08-22T03:41:04.747Z,16.94
2022-08-22T03:44:00.705Z,16.93
2022-08-22T03:46:52.744Z,16.93
2022-08-22T03:50:09.540Z,16.92
2022-08-22T03:53:18.581Z,16.79
2022-08-22T03:56:14.550Z,16.70
2022-08-22T03:59:09.815Z,16.63
2022-08-22T04:01:57.544Z,16.61
2022-08-22T04:04:59.108Z,16.57
2022-08-22T04:07:47.069Z,16.43
2022-08-22T04:10:52.042Z,16.54
2022-08-22T04:14:05.902Z,16.46
2022-08-22T04:17:12.955Z,16.41
2022-08-22T04:20:20.924Z,16.40
2022-08-22T04:23:17.153Z,16.39
2022-08-22T04:25:53.952Z,16.39
2022-08-22T04:28:31.863Z,16.41
2022-08-22T04:31:07.797Z,16.35
2022-08-22T04:33:53.040Z,16.28
2022-08-22T04:36:26.333Z,16.30
2022-08-22T04:38:57.406Z,16.29
2022-08-22T04:41:31.385Z,16.32
2022-08-22T04:44:04.838Z,16.29
2022-08-22T04:46:39.338Z,16.29
2022-08-22T04:49:15.190Z,16.36
2022-08-22T04:51:48.763Z,16.28
2022-08-22T04:54:33.735Z,16.28
2022-08-22T04:57:20.300Z,16.27
2022-08-22T04:59:50.496Z,16.31
2022-08-22T05:02:25.328Z,16.32
2022-08-22T05:05:04.180Z,16.30
2022-08-22T05:07:36.434Z,16.33
2022-08-22T05:10:12.525Z,16.40
2022-08-22T05:12:45.261Z,16.38
2022-08-22T05:15:23.143Z,16.49
2022-08-22T05:17:58.233Z,16.49
2022-08-22T05:20:29.585Z,16.57
2022-08-22T05:23:01.349Z,16.66
2022-08-22T05:25:38.607Z,16.75
2022-08-22T05:28:12.092Z,16.97
2022-08-22T05:30:41.142Z,17.20
2022-08-22T05:33:20.391Z,17.42
2022-08-22T05:35:57.753Z,17.67
2022-08-22T05:38:31.655Z,17.87
2022-08-22T05:41:05.499Z,17.98
2022-08-22T05:43:39.479Z,18.40
2022-08-22T05:46:20.617Z,18.49
2022-08-22T05:49:00.317Z,18.64
2022-08-22T05:51:35.380Z,18.74
2022-08-22T05:54:12.631Z,18.84
2022-08-22T05:56:47.144Z,18.76
2022-08-22T05:59:25.500Z,18.75
2022-08-22T06:02:03.056Z,18.71
2022-08-22T06:04:38.765Z,18.84
2022-08-22T06:07:11.645Z,18.71
2022-08-22T06:10:04.823Z,18.73
2022-08-22T06:12:38.934Z,18.80
2022-08-22T06:15:20.956Z,18.82
2022-08-22T06:17:57.702Z,19.05
2022-08-22T06:20:37.906Z,19.14
2022-08-22T06:24:29.137Z,19.69
2022-08-22T06:27:05.282Z,20.32
2022-08-22T06:29:38.810Z,20.90
2022-08-22T06:32:13.070Z,21.70
2022-08-22T06:34:44.602Z,22.54
2022-08-22T06:37:18.702Z,23.11
2022-08-22T06:39:54.005Z,23.65
2022-08-22T06:42:25.156Z,24.65
2022-08-22T06:45:00.454Z,25.04
2022-08-22T06:47:34.184Z,25.25
2022-08-22T06:50:06.708Z,25.77
2022-08-22T06:52:52.223Z,26.61
2022-08-22T06:55:23.827Z,27.10
2022-08-22T06:57:57.786Z,27.60
2022-08-22T07:00:29.130Z,28.59
2022-08-22T07:03:01.387Z,28.60
2022-08-22T07:05:38.784Z,28.58
2022-08-22T07:08:09.222Z,29.43
2022-08-22T07:10:42.361Z,29.24
2022-08-22T07:13:16.165Z,29.51
2022-08-22T07:15:54.988Z,29.58
2022-08-22T07:18:28.730Z,29.69
2022-08-22T07:20:57.889Z,29.76
2022-08-22T07:23:32.527Z,31.44
2022-08-22T07:26:15.923Z,31.48
2022-08-22T07:28:51.166Z,30.98
2022-08-22T07:31:34.592Z,32.03
2022-08-22T07:34:21.785Z,30.29
2022-08-22T07:36:57.512Z,30.90
2022-08-22T07:39:30.120Z,30.43
2022-08-22T07:42:06.884Z,29.67
2022-08-22T07:44:44.180Z,28.96
2022-08-22T07:47:18.035Z,28.05
2022-08-22T07:49:56.076Z,27.75
2022-08-22T07:52:25.011Z,27.36
2022-08-22T07:54:57.828Z,27.83
2022-08-22T07:57:33.415Z,27.89
2022-08-22T08:00:04.717Z,28.14
2022-08-22T08:02:45.560Z,29.88
2022-08-22T08:05:15.360Z,30.37
2022-08-22T08:07:46.216Z,30.45
2022-08-22T08:10:19.993Z,30.29
2022-08-22T08:13:02.486Z,29.80
2022-08-22T08:15:34.881Z,31.61
2022-08-22T08:18:06.883Z,32.42
2022-08-22T08:20:38.500Z,33.24
2022-08-22T08:23:10.407Z,34.17
2022-08-22T08:25:54.657Z,34.20
2022-08-22T08:28:38.706Z,34.10
2022-08-22T08:31:11.167Z,34.55
2022-08-22T08:33:44.165Z,33.72
2022-08-22T08:36:26.531Z,34.41
2022-08-22T08:39:00.105Z,35.49
2022-08-22T08:42:00.457Z,35.43
2022-08-22T08:44:58.026Z,35.44
2022-08-22T08:47:39.888Z,35.62
2022-08-22T08:50:29.002Z,36.09
2022-08-22T08:53:31.312Z,36.83
2022-08-22T08:56:02.873Z,37.50
2022-08-22T08:58:49.083Z,36.47
2022-08-22T09:01:37.446Z,34.62
2022-08-22T09:04:47.432Z,35.34
2022-08-22T09:08:00.789Z,34.74
2022-08-22T09:10:50.387Z,34.32
2022-08-22T09:13:41.515Z,33.70
2022-08-22T09:16:45.065Z,33.35
2022-08-22T09:19:45.352Z,33.43
2022-08-22T09:22:49.941Z,34.22
2022-08-22T09:25:27.908Z,33.80
2022-08-22T09:28:15.336Z,33.63
2022-08-22T09:30:59.064Z,34.56
2022-08-22T09:33:36.350Z,35.85
2022-08-22T09:36:12.287Z,35.06
2022-08-22T09:38:51.527Z,34.82
2022-08-22T09:41:33.670Z,35.13
2022-08-22T09:44:13.292Z,36.39
2022-08-22T09:46:53.352Z,36.22
2022-08-22T09:49:33.813Z,34.99
2022-08-22T09:52:15.308Z,35.62
2022-08-22T09:55:08.536Z,36.55
2022-08-22T09:57:40.770Z,35.36
2022-08-22T10:00:22.022Z,36.14
2022-08-22T10:03:03.984Z,36.87
2022-08-22T10:05:44.921Z,37.38
2022-08-22T10:08:49.253Z,37.21
2022-08-22T10:11:28.759Z,36.64
2022-08-22T10:14:04.382Z,35.07
2022-08-22T10:17:03.913Z,35.24
2022-08-22T10:19:43.422Z,36.38
2022-08-22T10:22:21.689Z,37.19
2022-08-22T10:25:05.791Z,37.47
2022-08-22T10:27:47.957Z,37.35
2022-08-22T10:30:20.309Z,38.30
2022-08-22T10:33:00.686Z,37.99
2022-08-22T10:35:33.941Z,38.25
2022-08-22T10:38:10.872Z,38.84
2022-08-22T10:40:48.319Z,38.33
2022-08-22T10:43:28.735Z,38.29
2022-08-22T10:46:03.784Z,39.45
2022-08-22T10:48:38.491Z,38.72
2022-08-22T10:51:21.560Z,36.95
2022-08-22T10:54:19.961Z,38.13
2022-08-22T10:56:57.714Z,37.37
2022-08-22T10:59:40.763Z,38.76
2022-08-22T11:02:37.516Z,39.31
2022-08-22T11:05:27.259Z,40.28
2022-08-22T11:08:17.576Z,38.89
2022-08-22T11:11:06.033Z,38.74
2022-08-22T11:13:43.493Z,37.53
2022-08-22T11:16:27.557Z,35.83
2022-08-22T11:19:15.613Z,35.33
2022-08-22T11:21:52.945Z,36.73
2022-08-22T11:25:52.583Z,37.21
2022-08-22T11:28:49.139Z,38.02
2022-08-22T11:31:31.791Z,37.54
2022-08-22T11:34:11.651Z,36.31
2022-08-22T11:36:46.508Z,36.69
2022-08-22T11:39:24.406Z,35.76
2022-08-22T11:42:06.124Z,36.31
2022-08-22T11:44:50.657Z,35.81
2022-08-22T11:47:28.810Z,37.82
2022-08-22T11:50:03.532Z,37.07
2022-08-22T11:52:58.064Z,36.36
2022-08-22T11:55:35.994Z,38.85
2022-08-22T11:58:21.800Z,38.82
2022-08-22T12:01:02.793Z,39.18
2022-08-22T12:04:05.116Z,39.09
2022-08-22T12:06:49.728Z,36.99
2022-08-22T12:09:50.618Z,35.55
2022-08-22T12:12:26.654Z,34.48
2022-08-22T12:15:03.080Z,33.36
2022-08-22T12:18:19.965Z,34.18
2022-08-22T12:21:21.551Z,34.56
2022-08-22T12:24:20.946Z,34.77
2022-08-22T12:27:18.439Z,32.28
2022-08-22T12:30:15.163Z,31.88
2022-08-22T12:33:16.378Z,31.72
2022-08-22T12:36:04.803Z,32.09
2022-08-22T12:38:47.624Z,32.25
2022-08-22T12:41:36.104Z,32.12
2022-08-22T12:44:21.486Z,31.57
2022-08-22T12:47:05.204Z,31.70
2022-08-22T12:49:49.921Z,31.00
2022-08-22T12:52:38.004Z,31.25
2022-08-22T12:55:43.830Z,32.15
2022-08-22T12:58:24.398Z,32.92
2022-08-22T13:00:53.452Z,32.12
2022-08-22T13:03:28.566Z,31.82
2022-08-22T13:06:00.611Z,31.73
2022-08-22T13:08:37.140Z,31.00
2022-08-22T13:11:23.294Z,31.27
2022-08-22T13:13:56.430Z,31.75
2022-08-22T13:16:36.392Z,31.30
2022-08-22T13:19:14.564Z,31.68
2022-08-22T13:21:49.027Z,31.58
2022-08-22T13:24:38.656Z,31.73
2022-08-22T13:27:17.013Z,31.55
2022-08-22T13:29:53.864Z,31.48
2022-08-22T13:32:32.353Z,31.13
2022-08-22T13:35:02.739Z,30.58
2022-08-22T13:37:37.632Z,30.99
2022-08-22T13:40:10.883Z,30.66
2022-08-22T13:42:48.023Z,31.25
2022-08-22T13:45:22.814Z,30.93
2022-08-22T13:47:55.880Z,30.92
2022-08-22T13:50:28.999Z,30.91
2022-08-22T13:53:08.123Z,31.14
2022-08-22T13:55:43.964Z,30.84
2022-08-22T13:58:31.332Z,30.98
2022-08-22T14:01:15.909Z,31.21
2022-08-22T14:03:49.980Z,31.37
2022-08-22T14:06:37.881Z,31.31
2022-08-22T14:09:31.559Z,31.26
2022-08-22T14:12:12.656Z,30.51
2022-08-22T14:14:45.998Z,30.34
2022-08-22T14:17:21.119Z,30.19
2022-08-22T14:19:59.073Z,29.93
2022-08-22T14:22:35.454Z,30.24
2022-08-22T14:25:09.140Z,30.37
2022-08-22T14:27:43.862Z,30.26
2022-08-22T14:30:18.639Z,30.11
2022-08-22T14:32:51.331Z,30.05
2022-08-22T14:35:34.618Z,30.32
2022-08-22T14:38:29.715Z,30.32
2022-08-22T14:41:06.843Z,30.12
2022-08-22T14:43:56.784Z,30.10
2022-08-22T14:46:35.238Z,29.75
2022-08-22T14:49:16.024Z,29.82
2022-08-22T14:51:50.726Z,29.81
2022-08-22T14:54:29.234Z,29.97
2022-08-22T14:57:01.827Z,29.70
2022-08-22T14:59:39.461Z,29.48
2022-08-22T15:02:14.902Z,29.22
2022-08-22T15:04:45.479Z,29.19
2022-08-22T15:07:24.204Z,28.89
2022-08-22T15:09:58.852Z,28.83
2022-08-22T15:12:29.795Z,28.82
2022-08-22T15:15:02.726Z,28.83
2022-08-22T15:17:35.737Z,28.76
2022-08-22T15:20:14.410Z,28.71
2022-08-22T15:22:46.713Z,28.74
2022-08-22T15:25:19.360Z,28.78
2022-08-22T15:27:53.918Z,28.71
2022-08-22T15:30:32.793Z,28.67
2022-08-22T15:33:14.423Z,28.65
2022-08-22T15:35:44.092Z,28.52
2022-08-22T15:38:27.912Z,28.49
2022-08-22T15:41:17.881Z,28.47
2022-08-22T15:43:50.665Z,28.35
2022-08-22T15:46:29.800Z,28.27
2022-08-22T15:49:03.515Z,28.25
2022-08-22T15:51:39.310Z,28.17
2022-08-22T15:54:24.717Z,28.13
2022-08-22T15:57:16.170Z,28.16
2022-08-22T15:59:55.764Z,28.31
2022-08-22T16:02:34.910Z,28.47
2022-08-22T16:05:24.525Z,28.64
2022-08-22T16:08:03.598Z,28.62
2022-08-22T16:10:37.644Z,28.72
2022-08-22T16:13:33.612Z,28.82
2022-08-22T16:16:06.986Z,28.83
2022-08-22T16:19:17.233Z,28.92
2022-08-22T16:22:08.333Z,28.90
2022-08-22T16:26:39.452Z,28.79
2022-08-22T16:29:31.488Z,28.83
2022-08-22T16:32:10.583Z,28.80
2022-08-22T16:34:44.000Z,28.74
2022-08-22T16:37:36.943Z,28.64
2022-08-22T16:40:14.960Z,28.50
2022-08-22T16:42:47.372Z,28.39
2022-08-22T16:45:33.951Z,28.34
2022-08-22T16:48:23.435Z,28.32
2022-08-22T16:51:06.828Z,28.24
2022-08-22T16:54:03.807Z,28.21
2022-08-22T16:56:38.352Z,28.22
2022-08-22T16:59:28.458Z,28.24
2022-08-22T17:02:28.326Z,28.15
2022-08-22T17:05:11.715Z,28.00
2022-08-22T17:07:55.284Z,27.83
2022-08-22T17:10:51.429Z,27.74
2022-08-22T17:13:32.985Z,27.67
2022-08-22T17:16:16.083Z,27.67
2022-08-22T17:18:57.739Z,27.59
2022-08-22T17:21:30.130Z,27.62
2022-08-22T17:24:06.283Z,27.57
2022-08-22T17:26:55.188Z,27.60
2022-08-22T17:29:34.025Z,27.51
2022-08-22T17:32:12.099Z,27.43
2022-08-22T17:34:51.175Z,27.35
2022-08-22T17:37:26.946Z,27.17
2022-08-22T17:40:16.040Z,27.15
2022-08-22T17:43:00.292Z,27.14
2022-08-22T17:45:42.831Z,27.19
2022-08-22T17:48:19.928Z,27.17
2022-08-22T17:50:55.571Z,27.10
2022-08-22T17:53:31.681Z,27.03
2022-08-22T17:56:08.095Z,27.03
2022-08-22T17:58:44.505Z,26.96
2022-08-22T18:01:16.710Z,26.80
2022-08-22T18:03:53.463Z,26.71
2022-08-22T18:06:30.723Z,26.63
2022-08-22T18:09:19.319Z,26.45
2022-08-22T18:11:53.472Z,26.42
2022-08-22T18:14:29.741Z,26.25
2022-08-22T18:17:00.818Z,26.24
2022-08-22T18:19:43.324Z,26.07
2022-08-22T18:22:24.173Z,26.03
2022-08-22T18:24:58.554Z,25.92
2022-08-22T18:27:35.632Z,25.76
2022-08-22T18:30:17.343Z,25.68
2022-08-22T18:32:57.389Z,25.52
2022-08-22T18:35:32.433Z,25.38
2022-08-22T18:38:19.103Z,25.23
2022-08-22T18:40:55.604Z,25.18
2022-08-22T18:43:38.142Z,24.98
2022-08-22T18:46:31.639Z,24.85
2022-08-22T18:49:15.469Z,24.73
2022-08-22T18:51:45.357Z,24.66
2022-08-22T18:54:36.650Z,24.72
2022-08-22T18:57:23.670Z,24.62
2022-08-22T19:00:07.036Z,24.60
2022-08-22T19:03:14.171Z,24.44
2022-08-22T19:06:04.693Z,24.32
2022-08-22T19:08:59.362Z,24.27
2022-08-22T19:11:43.083Z,24.27
2022-08-22T19:14:50.560Z,24.31
2022-08-22T19:17:38.840Z,24.18
2022-08-22T19:20:31.381Z,24.10
2022-08-22T19:23:32.497Z,24.08
2022-08-22T19:26:28.912Z,23.98
2022-08-22T19:29:01.249Z,23.93
2022-08-22T19:31:49.380Z,23.84
2022-08-22T19:34:41.422Z,23.89
2022-08-22T19:37:32.554Z,23.96
2022-08-22T19:40:06.944Z,24.09
2022-08-22T19:42:43.171Z,23.98
2022-08-22T19:45:23.381Z,23.87
2022-08-22T19:47:58.856Z,23.80
2022-08-22T19:50:35.157Z,23.67
2022-08-22T19:53:31.283Z,23.62
2022-08-22T19:56:12.756Z,23.45
2022-08-22T19:58:54.519Z,23.38
2022-08-22T20:01:37.263Z,23.27
2022-08-22T20:04:11.075Z,23.25
2022-08-22T20:06:44.491Z,23.17
2022-08-22T20:09:25.274Z,23.05
2022-08-22T20:12:04.003Z,22.93
2022-08-22T20:14:37.109Z,22.82
2022-08-22T20:17:10.873Z,22.69
2022-08-22T20:22:45.425Z,22.41
2022-08-22T20:25:43.137Z,22.21
2022-08-22T20:28:14.874Z,21.98
2022-08-22T20:30:47.769Z,21.84
2022-08-22T20:33:22.964Z,21.69
2022-08-22T20:35:55.054Z,21.54
2022-08-22T20:38:27.918Z,21.52
2022-08-22T20:41:11.649Z,21.45
2022-08-22T20:43:50.714Z,21.42
2022-08-22T20:46:43.558Z,21.53
2022-08-22T20:49:18.704Z,21.67
2022-08-22T20:51:53.863Z,21.55
2022-08-22T20:54:27.241Z,21.48
2022-08-22T20:56:57.450Z,21.39
2022-08-22T20:59:36.914Z,21.36
2022-08-22T21:02:14.497Z,21.34
2022-08-22T21:04:52.777Z,21.22
2022-08-22T21:07:26.752Z,21.08
2022-08-22T21:10:21.717Z,20.97
2022-08-22T21:13:04.413Z,21.09
2022-08-22T21:15:40.622Z,21.17
2022-08-22T21:18:11.983Z,20.97
2022-08-22T21:20:41.838Z,20.93
2022-08-22T21:23:15.015Z,20.76
2022-08-22T21:27:31.493Z,20.64
2022-08-22T21:30:06.662Z,20.64
2022-08-22T21:32:41.273Z,20.53
2022-08-22T21:35:24.927Z,20.46
2022-08-22T21:37:53.825Z,20.36
2022-08-22T21:40:29.749Z,20.26
2022-08-22T21:43:06.528Z,20.22
2022-08-22T21:45:41.251Z,20.20
2022-08-22T21:48:41.162Z,20.07
2022-08-22T21:51:42.762Z,20.00
2022-08-22T21:54:39.567Z,19.90
2022-08-22T21:57:36.067Z,19.82
2022-08-22T22:00:31.456Z,19.76
2022-08-22T22:03:00.776Z,19.67
2022-08-22T22:05:30.986Z,19.59
2022-08-22T22:07:59.389Z,19.58
2022-08-22T22:10:30.075Z,19.52
2022-08-22T22:12:59.639Z,19.53
2022-08-22T22:15:33.242Z,19.49
2022-08-22T22:18:01.624Z,19.42
2022-08-22T22:20:30.105Z,19.42
2022-08-22T22:22:58.970Z,19.42
2022-08-22T22:25:38.882Z,19.38
2022-08-22T22:28:15.545Z,19.33
2022-08-22T22:30:50.573Z,19.31
2022-08-22T22:33:18.793Z,19.28
2022-08-22T22:35:50.601Z,19.27
2022-08-22T22:38:24.136Z,19.26
2022-08-22T22:40:53.355Z,19.30
2022-08-22T22:43:23.797Z,19.38
2022-08-22T22:45:53.322Z,19.30
2022-08-22T22:48:24.518Z,19.40
2022-08-22T22:50:53.621Z,19.44
2022-08-22T22:53:33.717Z,19.41
2022-08-22T22:56:09.584Z,19.31
2022-08-22T22:58:38.987Z,19.19
2022-08-22T23:01:12.938Z,19.07
2022-08-22T23:03:41.428Z,19.04
2022-08-22T23:06:12.286Z,19.00
2022-08-22T23:08:40.477Z,18.92
2022-08-22T23:11:11.719Z,18.86
2022-08-22T23:13:42.903Z,18.78
2022-08-22T23:16:15.752Z,18.74
2022-08-22T23:18:43.916Z,18.75
2022-08-22T23:21:15.106Z,18.71
2022-08-22T23:23:43.892Z,18.68
2022-08-22T23:26:12.840Z,18.61
2022-08-22T23:28:41.791Z,18.54
2022-08-22T23:31:14.695Z,18.56
2022-08-22T23:33:43.358Z,18.57
2022-08-22T23:36:13.700Z,18.52
2022-08-22T23:38:41.830Z,18.46
2022-08-22T23:41:11.761Z,18.48
2022-08-22T23:43:43.156Z,18.62
2022-08-22T23:46:14.021Z,18.63
2022-08-22T23:48:42.871Z,18.70
2022-08-22T23:51:15.102Z,18.66
2022-08-22T23:53:45.574Z,18.54
2022-08-22T23:56:19.869Z,18.50
2022-08-22T23:58:49.285Z,18.43
